sensor_id;sensor_type;location;lat;lon;timestamp;pressure;altitude;pressure_sealevel;temperature
74043;BMP280;62384;53.600;10.040;2022-12-11T00:00:04;-9241.41;;;-0.34
74043;BMP280;62384;53.600;10.040;2022-12-11T00:02:29;-9240.75;;;-0.36
74043;BMP280;62384;53.600;10.040;2022-12-11T00:04:54;-9243.50;;;-0.26
74043;BMP280;62384;53.600;10.040;2022-12-11T00:07:20;-9239.03;;;-0.43
74043;BMP280;62384;53.600;10.040;2022-12-11T00:09:45;-9238.63;;;-0.44
74043;BMP280;62384;53.600;10.040;2022-12-11T00:12:10;-9243.50;;;-0.26
74043;BMP280;62384;53.600;10.040;2022-12-11T00:14:35;-9242.59;;;-0.29
74043;BMP280;62384;53.600;10.040;2022-12-11T00:17:01;-9242.72;;;-0.29
74043;BMP280;62384;53.600;10.040;2022-12-11T00:19:26;-9241.94;;;-0.32
74043;BMP280;62384;53.600;10.040;2022-12-11T00:21:51;-9237.84;;;-0.47
74043;BMP280;62384;53.600;10.040;2022-12-11T00:24:17;-9239.44;;;-0.41
74043;BMP280;62384;53.600;10.040;2022-12-11T00:26:42;-9238.38;;;-0.45
74043;BMP280;62384;53.600;10.040;2022-12-11T00:29:09;-9242.84;;;-0.28
74043;BMP280;62384;53.600;10.040;2022-12-11T00:31:38;-9242.06;;;-0.31
74043;BMP280;62384;53.600;10.040;2022-12-11T00:34:03;-9228.94;;;-0.82
74043;BMP280;62384;53.600;10.040;2022-12-11T00:36:29;-9239.44;;;-0.41
74043;BMP280;62384;53.600;10.040;2022-12-11T00:38:54;-9237.06;;;-0.51
74043;BMP280;62384;53.600;10.040;2022-12-11T00:41:20;-9239.94;;;-0.39
74043;BMP280;62384;53.600;10.040;2022-12-11T00:43:46;-9237.59;;;-0.48
74043;BMP280;62384;53.600;10.040;2022-12-11T00:46:11;-9238.13;;;-0.46
74043;BMP280;62384;53.600;10.040;2022-12-11T00:48:37;-9239.81;;;-0.40
74043;BMP280;62384;53.600;10.040;2022-12-11T00:51:02;-9241.94;;;-0.32
74043;BMP280;62384;53.600;10.040;2022-12-11T00:53:28;-9239.94;;;-0.39
74043;BMP280;62384;53.600;10.040;2022-12-11T00:55:53;-9239.16;;;-0.42
74043;BMP280;62384;53.600;10.040;2022-12-11T00:58:19;-9238.78;;;-0.44
74043;BMP280;62384;53.600;10.040;2022-12-11T01:00:44;-9240.22;;;-0.38
74043;BMP280;62384;53.600;10.040;2022-12-11T01:03:12;-9241.53;;;-0.33
74043;BMP280;62384;53.600;10.040;2022-12-11T01:05:38;-9239.81;;;-0.40
74043;BMP280;62384;53.600;10.040;2022-12-11T01:08:03;-9240.59;;;-0.37
74043;BMP280;62384;53.600;10.040;2022-12-11T01:10:29;-9240.59;;;-0.37
74043;BMP280;62384;53.600;10.040;2022-12-11T01:15:22;-9242.97;;;-0.28
74043;BMP280;62384;53.600;10.040;2022-12-11T01:17:49;-9240.47;;;-0.37
74043;BMP280;62384;53.600;10.040;2022-12-11T01:20:14;-9239.56;;;-0.41
74043;BMP280;62384;53.600;10.040;2022-12-11T01:22:42;-9243.63;;;-0.25
74043;BMP280;62384;53.600;10.040;2022-12-11T01:25:08;-9241.94;;;-0.32
74043;BMP280;62384;53.600;10.040;2022-12-11T01:27:34;-9241.94;;;-0.32
74043;BMP280;62384;53.600;10.040;2022-12-11T01:29:59;-9238.91;;;-0.43
74043;BMP280;62384;53.600;10.040;2022-12-11T01:32:26;-9237.97;;;-0.47
74043;BMP280;62384;53.600;10.040;2022-12-11T01:34:51;-9237.47;;;-0.49
74043;BMP280;62384;53.600;10.040;2022-12-11T01:37:17;-9238.25;;;-0.46
74043;BMP280;62384;53.600;10.040;2022-12-11T01:39:42;-9237.72;;;-0.48
74043;BMP280;62384;53.600;10.040;2022-12-11T01:42:15;-9241.25;;;-0.34
74043;BMP280;62384;53.600;10.040;2022-12-11T01:47:06;-9238.38;;;-0.45
74043;BMP280;62384;53.600;10.040;2022-12-11T01:49:32;-9235.50;;;-0.57
74043;BMP280;62384;53.600;10.040;2022-12-11T01:52:02;-9237.84;;;-0.47
74043;BMP280;62384;53.600;10.040;2022-12-11T01:54:30;-9238.63;;;-0.44
74043;BMP280;62384;53.600;10.040;2022-12-11T01:57:00;-9238.50;;;-0.45
74043;BMP280;62384;53.600;10.040;2022-12-11T01:59:29;-9237.97;;;-0.47
74043;BMP280;62384;53.600;10.040;2022-12-11T02:02:06;-9237.84;;;-0.47
74043;BMP280;62384;53.600;10.040;2022-12-11T02:04:33;-9238.38;;;-0.45
74043;BMP280;62384;53.600;10.040;2022-12-11T02:06:59;-9235.63;;;-0.56
74043;BMP280;62384;53.600;10.040;2022-12-11T02:09:27;-9238.78;;;-0.44
74043;BMP280;62384;53.600;10.040;2022-12-11T02:12:01;-9239.44;;;-0.41
74043;BMP280;62384;53.600;10.040;2022-12-11T02:14:33;-9236.16;;;-0.54
74043;BMP280;62384;53.600;10.040;2022-12-11T02:17:10;-9235.63;;;-0.56
74043;BMP280;62384;53.600;10.040;2022-12-11T02:19:43;-9237.06;;;-0.51
74043;BMP280;62384;53.600;10.040;2022-12-11T02:22:14;-9236.81;;;-0.52
74043;BMP280;62384;53.600;10.040;2022-12-11T02:25:04;-9226.44;;;-0.91
74043;BMP280;62384;53.600;10.040;2022-12-11T02:27:41;-9236.28;;;-0.54
74043;BMP280;62384;53.600;10.040;2022-12-11T02:30:09;-9230.63;;;-0.75
74043;BMP280;62384;53.600;10.040;2022-12-11T02:32:47;-9231.28;;;-0.73
74043;BMP280;62384;53.600;10.040;2022-12-11T02:35:21;-9231.56;;;-0.72
74043;BMP280;62384;53.600;10.040;2022-12-11T02:37:54;-9233.13;;;-0.66
74043;BMP280;62384;53.600;10.040;2022-12-11T02:40:25;-9227.22;;;-0.88
74043;BMP280;62384;53.600;10.040;2022-12-11T02:42:53;-9225.66;;;-0.94
74043;BMP280;62384;53.600;10.040;2022-12-11T02:45:20;-9227.09;;;-0.89
74043;BMP280;62384;53.600;10.040;2022-12-11T02:47:48;-9229.19;;;-0.81
74043;BMP280;62384;53.600;10.040;2022-12-11T02:50:17;-9231.94;;;-0.70
74043;BMP280;62384;53.600;10.040;2022-12-11T02:52:45;-9231.69;;;-0.71
74043;BMP280;62384;53.600;10.040;2022-12-11T02:55:13;-9229.59;;;-0.79
74043;BMP280;62384;53.600;10.040;2022-12-11T02:57:48;-9226.69;;;-0.90
74043;BMP280;62384;53.600;10.040;2022-12-11T03:00:15;-9228.13;;;-0.85
74043;BMP280;62384;53.600;10.040;2022-12-11T03:02:41;-9225.38;;;-0.95
74043;BMP280;62384;53.600;10.040;2022-12-11T03:05:07;-9226.03;;;-0.93
74043;BMP280;62384;53.600;10.040;2022-12-11T03:07:36;-9226.56;;;-0.91
74043;BMP280;62384;53.600;10.040;2022-12-11T03:10:03;-9227.63;;;-0.87
74043;BMP280;62384;53.600;10.040;2022-12-11T03:12:32;-9230.38;;;-0.76
74043;BMP280;62384;53.600;10.040;2022-12-11T03:15:00;-9230.09;;;-0.77
74043;BMP280;62384;53.600;10.040;2022-12-11T03:17:34;-9229.31;;;-0.80
74043;BMP280;62384;53.600;10.040;2022-12-11T03:20:20;-9227.09;;;-0.89
74043;BMP280;62384;53.600;10.040;2022-12-11T03:25:46;-9229.97;;;-0.78
74043;BMP280;62384;53.600;10.040;2022-12-11T03:28:21;-9228.94;;;-0.82
74043;BMP280;62384;53.600;10.040;2022-12-11T03:30:50;-9225.13;;;-0.96
74043;BMP280;62384;53.600;10.040;2022-12-11T03:33:26;-9228.94;;;-0.82
74043;BMP280;62384;53.600;10.040;2022-12-11T03:35:56;-9228.28;;;-0.84
74043;BMP280;62384;53.600;10.040;2022-12-11T03:38:27;-9227.50;;;-0.87
74043;BMP280;62384;53.600;10.040;2022-12-11T03:40:59;-9227.22;;;-0.88
74043;BMP280;62384;53.600;10.040;2022-12-11T03:43:27;-9225.38;;;-0.95
74043;BMP280;62384;53.600;10.040;2022-12-11T03:45:54;-9226.03;;;-0.93
74043;BMP280;62384;53.600;10.040;2022-12-11T03:48:22;-9221.44;;;-1.11
74043;BMP280;62384;53.600;10.040;2022-12-11T03:50:49;-9222.09;;;-1.08
74043;BMP280;62384;53.600;10.040;2022-12-11T03:53:16;-9223.16;;;-1.04
74043;BMP280;62384;53.600;10.040;2022-12-11T03:55:43;-9225.38;;;-0.95
74043;BMP280;62384;53.600;10.040;2022-12-11T03:58:09;-9226.44;;;-0.91
74043;BMP280;62384;53.600;10.040;2022-12-11T04:00:35;-9224.22;;;-1.00
74043;BMP280;62384;53.600;10.040;2022-12-11T04:03:00;-9224.88;;;-0.97
74043;BMP280;62384;53.600;10.040;2022-12-11T04:05:39;-9225.66;;;-0.94
74043;BMP280;62384;53.600;10.040;2022-12-11T04:08:04;-9226.44;;;-0.91
74043;BMP280;62384;53.600;10.040;2022-12-11T04:10:30;-9227.88;;;-0.86
74043;BMP280;62384;53.600;10.040;2022-12-11T04:12:55;-9227.50;;;-0.87
74043;BMP280;62384;53.600;10.040;2022-12-11T04:15:20;-9229.59;;;-0.79
74043;BMP280;62384;53.600;10.040;2022-12-11T04:17:46;-9231.56;;;-0.72
74043;BMP280;62384;53.600;10.040;2022-12-11T04:20:29;-9230.63;;;-0.75
74043;BMP280;62384;53.600;10.040;2022-12-11T04:23:16;-9228.78;;;-0.82
74043;BMP280;62384;53.600;10.040;2022-12-11T04:26:17;-9230.50;;;-0.76
74043;BMP280;62384;53.600;10.040;2022-12-11T04:28:44;-9229.59;;;-0.79
74043;BMP280;62384;53.600;10.040;2022-12-11T04:31:18;-9229.47;;;-0.80
74043;BMP280;62384;53.600;10.040;2022-12-11T04:33:44;-9218.69;;;-1.21
74043;BMP280;62384;53.600;10.040;2022-12-11T04:36:10;-9230.50;;;-0.76
74043;BMP280;62384;53.600;10.040;2022-12-11T04:38:36;-9230.91;;;-0.74
74043;BMP280;62384;53.600;10.040;2022-12-11T04:41:07;-9233.25;;;-0.65
74043;BMP280;62384;53.600;10.040;2022-12-11T04:43:33;-9230.91;;;-0.74
74043;BMP280;62384;53.600;10.040;2022-12-11T04:46:00;-9220.41;;;-1.15
74043;BMP280;62384;53.600;10.040;2022-12-11T04:48:25;-9228.78;;;-0.82
74043;BMP280;62384;53.600;10.040;2022-12-11T04:50:51;-9227.50;;;-0.87
74043;BMP280;62384;53.600;10.040;2022-12-11T04:53:16;-9228.94;;;-0.82
74043;BMP280;62384;53.600;10.040;2022-12-11T04:55:41;-9231.16;;;-0.73
74043;BMP280;62384;53.600;10.040;2022-12-11T04:58:06;-9228.66;;;-0.83
74043;BMP280;62384;53.600;10.040;2022-12-11T05:00:32;-9226.44;;;-0.91
74043;BMP280;62384;53.600;10.040;2022-12-11T05:02:57;-9226.69;;;-0.90
74043;BMP280;62384;53.600;10.040;2022-12-11T05:05:22;-9227.75;;;-0.86
74043;BMP280;62384;53.600;10.040;2022-12-11T05:07:47;-9227.88;;;-0.86
74043;BMP280;62384;53.600;10.040;2022-12-11T05:10:13;-9227.22;;;-0.88
74043;BMP280;62384;53.600;10.040;2022-12-11T05:12:38;-9229.59;;;-0.79
74043;BMP280;62384;53.600;10.040;2022-12-11T05:15:03;-9229.06;;;-0.81
74043;BMP280;62384;53.600;10.040;2022-12-11T05:17:29;-9228.78;;;-0.82
74043;BMP280;62384;53.600;10.040;2022-12-11T05:19:54;-9227.88;;;-0.86
74043;BMP280;62384;53.600;10.040;2022-12-11T05:22:19;-9227.09;;;-0.89
74043;BMP280;62384;53.600;10.040;2022-12-11T05:24:44;-9226.69;;;-0.90
74043;BMP280;62384;53.600;10.040;2022-12-11T05:27:10;-9233.66;;;-0.64
74043;BMP280;62384;53.600;10.040;2022-12-11T05:29:36;-9229.06;;;-0.81
74043;BMP280;62384;53.600;10.040;2022-12-11T05:32:01;-9231.41;;;-0.72
74043;BMP280;62384;53.600;10.040;2022-12-11T05:34:26;-9232.22;;;-0.69
74043;BMP280;62384;53.600;10.040;2022-12-11T05:36:52;-9232.34;;;-0.69
74043;BMP280;62384;53.600;10.040;2022-12-11T05:39:17;-9232.09;;;-0.70
74043;BMP280;62384;53.600;10.040;2022-12-11T05:41:43;-9231.16;;;-0.73
74043;BMP280;62384;53.600;10.040;2022-12-11T05:44:11;-9234.84;;;-0.59
74043;BMP280;62384;53.600;10.040;2022-12-11T05:46:39;-9234.69;;;-0.60
74043;BMP280;62384;53.600;10.040;2022-12-11T05:49:04;-9232.59;;;-0.68
74043;BMP280;62384;53.600;10.040;2022-12-11T05:51:31;-9231.41;;;-0.72
74043;BMP280;62384;53.600;10.040;2022-12-11T05:53:58;-9230.91;;;-0.74
74043;BMP280;62384;53.600;10.040;2022-12-11T05:56:28;-9231.41;;;-0.72
74043;BMP280;62384;53.600;10.040;2022-12-11T05:58:55;-9228.28;;;-0.84
74043;BMP280;62384;53.600;10.040;2022-12-11T06:01:43;-9228.66;;;-0.83
74043;BMP280;62384;53.600;10.040;2022-12-11T06:04:09;-9226.69;;;-0.90
74043;BMP280;62384;53.600;10.040;2022-12-11T06:06:35;-9224.22;;;-1.00
74043;BMP280;62384;53.600;10.040;2022-12-11T06:09:01;-9222.25;;;-1.08
74043;BMP280;62384;53.600;10.040;2022-12-11T06:11:28;-9221.31;;;-1.11
74043;BMP280;62384;53.600;10.040;2022-12-11T06:13:54;-9222.25;;;-1.08
74043;BMP280;62384;53.600;10.040;2022-12-11T06:16:20;-9218.16;;;-1.23
74043;BMP280;62384;53.600;10.040;2022-12-11T06:18:46;-9220.13;;;-1.16
74043;BMP280;62384;53.600;10.040;2022-12-11T06:21:19;-9220.13;;;-1.16
74043;BMP280;62384;53.600;10.040;2022-12-11T06:23:45;-9219.63;;;-1.18
74043;BMP280;62384;53.600;10.040;2022-12-11T06:26:11;-9217.38;;;-1.26
74043;BMP280;62384;53.600;10.040;2022-12-11T06:28:37;-9216.47;;;-1.30
74043;BMP280;62384;53.600;10.040;2022-12-11T06:31:03;-9215.81;;;-1.32
74043;BMP280;62384;53.600;10.040;2022-12-11T06:33:28;-9216.47;;;-1.30
74043;BMP280;62384;53.600;10.040;2022-12-11T06:35:54;-9215.00;;;-1.35
74043;BMP280;62384;53.600;10.040;2022-12-11T06:38:19;-9217.50;;;-1.26
74043;BMP280;62384;53.600;10.040;2022-12-11T06:40:45;-9217.25;;;-1.27
74043;BMP280;62384;53.600;10.040;2022-12-11T06:43:10;-9217.50;;;-1.26
74043;BMP280;62384;53.600;10.040;2022-12-11T06:45:36;-9216.84;;;-1.28
74043;BMP280;62384;53.600;10.040;2022-12-11T06:48:02;-9217.38;;;-1.26
74043;BMP280;62384;53.600;10.040;2022-12-11T06:50:27;-9216.47;;;-1.30
74043;BMP280;62384;53.600;10.040;2022-12-11T06:52:54;-9218.16;;;-1.23
74043;BMP280;62384;53.600;10.040;2022-12-11T06:55:20;-9217.00;;;-1.28
74043;BMP280;62384;53.600;10.040;2022-12-11T06:57:45;-9217.38;;;-1.26
74043;BMP280;62384;53.600;10.040;2022-12-11T07:00:11;-9217.50;;;-1.26
74043;BMP280;62384;53.600;10.040;2022-12-11T07:02:36;-9216.72;;;-1.29
74043;BMP280;62384;53.600;10.040;2022-12-11T07:05:02;-9216.59;;;-1.29
74043;BMP280;62384;53.600;10.040;2022-12-11T07:07:27;-9216.84;;;-1.28
74043;BMP280;62384;53.600;10.040;2022-12-11T07:09:52;-9218.31;;;-1.23
74043;BMP280;62384;53.600;10.040;2022-12-11T07:12:18;-9216.59;;;-1.29
74043;BMP280;62384;53.600;10.040;2022-12-11T07:14:43;-9215.16;;;-1.35
74043;BMP280;62384;53.600;10.040;2022-12-11T07:17:08;-9214.09;;;-1.39
74043;BMP280;62384;53.600;10.040;2022-12-11T07:19:33;-9215.41;;;-1.34
74043;BMP280;62384;53.600;10.040;2022-12-11T07:21:59;-9214.34;;;-1.38
74043;BMP280;62384;53.600;10.040;2022-12-11T07:24:24;-9214.75;;;-1.36
74043;BMP280;62384;53.600;10.040;2022-12-11T07:26:49;-9214.63;;;-1.37
74043;BMP280;62384;53.600;10.040;2022-12-11T07:29:15;-9209.38;;;-1.57
74043;BMP280;62384;53.600;10.040;2022-12-11T07:31:40;-9210.56;;;-1.52
74043;BMP280;62384;53.600;10.040;2022-12-11T07:34:06;-9215.28;;;-1.34
74043;BMP280;62384;53.600;10.040;2022-12-11T07:36:32;-9214.50;;;-1.37
74043;BMP280;62384;53.600;10.040;2022-12-11T07:38:59;-9211.75;;;-1.48
74043;BMP280;62384;53.600;10.040;2022-12-11T07:41:24;-9213.56;;;-1.41
74043;BMP280;62384;53.600;10.040;2022-12-11T07:43:51;-9213.84;;;-1.40
74043;BMP280;62384;53.600;10.040;2022-12-11T07:46:20;-9212.66;;;-1.44
74043;BMP280;62384;53.600;10.040;2022-12-11T07:48:47;-9212.78;;;-1.44
74043;BMP280;62384;53.600;10.040;2022-12-11T07:51:21;-9213.97;;;-1.39
74043;BMP280;62384;53.600;10.040;2022-12-11T07:53:55;-9202.16;;;-1.85
74043;BMP280;62384;53.600;10.040;2022-12-11T07:56:21;-9205.97;;;-1.70
74043;BMP280;62384;53.600;10.040;2022-12-11T07:58:47;-9205.97;;;-1.70
74043;BMP280;62384;53.600;10.040;2022-12-11T08:01:15;-9207.66;;;-1.64
74043;BMP280;62384;53.600;10.040;2022-12-11T08:03:41;-9205.69;;;-1.71
74043;BMP280;62384;53.600;10.040;2022-12-11T08:06:07;-9200.84;;;-1.90
74043;BMP280;62384;53.600;10.040;2022-12-11T08:08:33;-9202.16;;;-1.85
74043;BMP280;62384;53.600;10.040;2022-12-11T08:11:09;-9204.53;;;-1.76
74043;BMP280;62384;53.600;10.040;2022-12-11T08:13:35;-9206.50;;;-1.68
74043;BMP280;62384;53.600;10.040;2022-12-11T08:16:11;-9205.44;;;-1.72
74043;BMP280;62384;53.600;10.040;2022-12-11T08:18:38;-9205.56;;;-1.72
74043;BMP280;62384;53.600;10.040;2022-12-11T08:21:09;-9205.69;;;-1.71
74043;BMP280;62384;53.600;10.040;2022-12-11T08:23:34;-9202.56;;;-1.83
74043;BMP280;62384;53.600;10.040;2022-12-11T08:26:09;-9204.53;;;-1.76
74043;BMP280;62384;53.600;10.040;2022-12-11T08:28:35;-9203.22;;;-1.81
74043;BMP280;62384;53.600;10.040;2022-12-11T08:31:05;-9204.53;;;-1.76
74043;BMP280;62384;53.600;10.040;2022-12-11T08:33:31;-9201.09;;;-1.89
74043;BMP280;62384;53.600;10.040;2022-12-11T08:35:56;-9203.06;;;-1.81
74043;BMP280;62384;53.600;10.040;2022-12-11T08:38:23;-9202.56;;;-1.83
74043;BMP280;62384;53.600;10.040;2022-12-11T08:40:49;-9199.78;;;-1.94
74043;BMP280;62384;53.600;10.040;2022-12-11T08:43:14;-9200.59;;;-1.91
74043;BMP280;62384;53.600;10.040;2022-12-11T08:45:39;-9201.25;;;-1.88
74043;BMP280;62384;53.600;10.040;2022-12-11T08:48:05;-9200.19;;;-1.92
74043;BMP280;62384;53.600;10.040;2022-12-11T08:50:30;-9198.22;;;-2.00
74043;BMP280;62384;53.600;10.040;2022-12-11T08:52:56;-9204.41;;;-1.76
74043;BMP280;62384;53.600;10.040;2022-12-11T08:55:21;-9205.44;;;-1.72
74043;BMP280;62384;53.600;10.040;2022-12-11T08:57:49;-9207.41;;;-1.65
74043;BMP280;62384;53.600;10.040;2022-12-11T09:00:15;-9204.53;;;-1.76
74043;BMP280;62384;53.600;10.040;2022-12-11T09:02:41;-9205.97;;;-1.70
74043;BMP280;62384;53.600;10.040;2022-12-11T09:05:07;-9206.34;;;-1.69
74043;BMP280;62384;53.600;10.040;2022-12-11T09:07:34;-9205.19;;;-1.73
74043;BMP280;62384;53.600;10.040;2022-12-11T09:09:59;-9209.63;;;-1.56
74043;BMP280;62384;53.600;10.040;2022-12-11T09:12:25;-9208.59;;;-1.60
74043;BMP280;62384;53.600;10.040;2022-12-11T09:14:51;-9210.94;;;-1.51
74043;BMP280;62384;53.600;10.040;2022-12-11T09:17:16;-9210.69;;;-1.52
74043;BMP280;62384;53.600;10.040;2022-12-11T09:19:41;-9211.34;;;-1.49
74043;BMP280;62384;53.600;10.040;2022-12-11T09:22:07;-9210.69;;;-1.52
74043;BMP280;62384;53.600;10.040;2022-12-11T09:24:36;-9214.34;;;-1.38
74043;BMP280;62384;53.600;10.040;2022-12-11T09:27:03;-9216.72;;;-1.29
74043;BMP280;62384;53.600;10.040;2022-12-11T09:29:28;-9210.44;;;-1.53
74043;BMP280;62384;53.600;10.040;2022-12-11T09:31:55;-9220.00;;;-1.16
74043;BMP280;62384;53.600;10.040;2022-12-11T09:34:20;-9217.78;;;-1.25
74043;BMP280;62384;53.600;10.040;2022-12-11T09:36:46;-9220.53;;;-1.14
74043;BMP280;62384;53.600;10.040;2022-12-11T09:39:13;-9220.91;;;-1.13
74043;BMP280;62384;53.600;10.040;2022-12-11T09:41:52;-9220.66;;;-1.14
74043;BMP280;62384;53.600;10.040;2022-12-11T09:47:25;-9226.16;;;-0.92
74043;BMP280;62384;53.600;10.040;2022-12-11T09:50:12;-9227.50;;;-0.87
74043;BMP280;62384;53.600;10.040;2022-12-11T09:55:17;-9232.22;;;-0.69
74043;BMP280;62384;53.600;10.040;2022-12-11T10:00:48;-9231.69;;;-0.71
74043;BMP280;62384;53.600;10.040;2022-12-11T10:09:42;-9237.72;;;-0.48
74043;BMP280;62384;53.600;10.040;2022-12-11T10:15:25;-9237.97;;;-0.47
74043;BMP280;62384;53.600;10.040;2022-12-11T10:17:58;-9243.63;;;-0.25
74043;BMP280;62384;53.600;10.040;2022-12-11T10:20:28;-9243.91;;;-0.24
74043;BMP280;62384;53.600;10.040;2022-12-11T10:22:56;-9242.97;;;-0.28
74043;BMP280;62384;53.600;10.040;2022-12-11T10:25:28;-9244.81;;;-0.21
74043;BMP280;62384;53.600;10.040;2022-12-11T10:27:55;-9244.69;;;-0.21
74043;BMP280;62384;53.600;10.040;2022-12-11T10:30:25;-9246.78;;;-0.13
74043;BMP280;62384;53.600;10.040;2022-12-11T10:35:55;-9246.53;;;-0.14
74043;BMP280;62384;53.600;10.040;2022-12-11T10:38:32;-9248.34;;;-0.07
74043;BMP280;62384;53.600;10.040;2022-12-11T10:41:02;-9242.06;;;-0.31
74043;BMP280;62384;53.600;10.040;2022-12-11T10:43:42;-9250.84;;;0.03
74043;BMP280;62384;53.600;10.040;2022-12-11T10:46:19;-9251.63;;;0.06
74043;BMP280;62384;53.600;10.040;2022-12-11T10:51:14;-9253.09;;;0.11
74043;BMP280;62384;53.600;10.040;2022-12-11T10:53:40;-9255.84;;;0.22
74043;BMP280;62384;53.600;10.040;2022-12-11T10:56:08;-9258.19;;;0.31
74043;BMP280;62384;53.600;10.040;2022-12-11T10:58:38;-9250.84;;;0.03
74043;BMP280;62384;53.600;10.040;2022-12-11T11:01:06;-9257.16;;;0.27
74043;BMP280;62384;53.600;10.040;2022-12-11T11:03:34;-9259.38;;;0.35
74043;BMP280;62384;53.600;10.040;2022-12-11T11:06:21;-9262.41;;;0.47
74043;BMP280;62384;53.600;10.040;2022-12-11T11:08:50;-9267.41;;;0.66
74043;BMP280;62384;53.600;10.040;2022-12-11T11:13:46;-9276.06;;;0.99
74043;BMP280;62384;53.600;10.040;2022-12-11T11:16:14;-9295.75;;;1.75
74043;BMP280;62384;53.600;10.040;2022-12-11T11:18:53;-9324.94;;;2.87
74043;BMP280;62384;53.600;10.040;2022-12-11T11:21:21;-9367.78;;;4.52
74043;BMP280;62384;53.600;10.040;2022-12-11T11:23:49;-9369.22;;;4.57
74043;BMP280;62384;53.600;10.040;2022-12-11T11:26:15;-9380.00;;;4.98
74043;BMP280;62384;53.600;10.040;2022-12-11T11:28:47;-9368.56;;;4.55
74043;BMP280;62384;53.600;10.040;2022-12-11T11:31:14;-9382.22;;;5.07
74043;BMP280;62384;53.600;10.040;2022-12-11T11:33:55;-9361.19;;;4.26
74043;BMP280;62384;53.600;10.040;2022-12-11T11:36:27;-9352.25;;;3.92
74043;BMP280;62384;53.600;10.040;2022-12-11T11:41:21;-9351.22;;;3.88
74043;BMP280;62384;53.600;10.040;2022-12-11T11:43:50;-9343.06;;;3.57
74043;BMP280;62384;53.600;10.040;2022-12-11T11:46:32;-9337.16;;;3.34
74043;BMP280;62384;53.600;10.040;2022-12-11T11:49:12;-9322.03;;;2.76
74043;BMP280;62384;53.600;10.040;2022-12-11T11:51:53;-9330.44;;;3.08
74043;BMP280;62384;53.600;10.040;2022-12-11T11:54:28;-9330.31;;;3.08
74043;BMP280;62384;53.600;10.040;2022-12-11T11:56:55;-9335.84;;;3.29
74043;BMP280;62384;53.600;10.040;2022-12-11T11:59:31;-9343.06;;;3.57
74043;BMP280;62384;53.600;10.040;2022-12-11T12:01:58;-9341.34;;;3.50
74043;BMP280;62384;53.600;10.040;2022-12-11T12:04:28;-9348.72;;;3.78
74043;BMP280;62384;53.600;10.040;2022-12-11T12:17:24;-9359.09;;;4.18
74043;BMP280;62384;53.600;10.040;2022-12-11T12:20:12;-9349.25;;;3.80
74043;BMP280;62384;53.600;10.040;2022-12-11T12:25:44;-9353.44;;;3.97
74043;BMP280;62384;53.600;10.040;2022-12-11T12:28:30;-9341.34;;;3.50
74043;BMP280;62384;53.600;10.040;2022-12-11T12:40:30;-9319.28;;;2.65
74043;BMP280;62384;53.600;10.040;2022-12-11T12:45:58;-9320.06;;;2.68
74043;BMP280;62384;53.600;10.040;2022-12-11T12:48:27;-9327.56;;;2.97
74043;BMP280;62384;53.600;10.040;2022-12-11T12:50:54;-9334.53;;;3.24
74043;BMP280;62384;53.600;10.040;2022-12-11T12:53:22;-9338.84;;;3.41
74043;BMP280;62384;53.600;10.040;2022-12-11T12:55:49;-9340.44;;;3.47
74043;BMP280;62384;53.600;10.040;2022-12-11T12:58:38;-9333.84;;;3.21
74043;BMP280;62384;53.600;10.040;2022-12-11T13:01:18;-9325.31;;;2.89
74043;BMP280;62384;53.600;10.040;2022-12-11T13:04:02;-9322.81;;;2.79
74043;BMP280;62384;53.600;10.040;2022-12-11T13:06:33;-9314.69;;;2.48
74043;BMP280;62384;53.600;10.040;2022-12-11T13:09:17;-9313.09;;;2.42
74043;BMP280;62384;53.600;10.040;2022-12-11T13:11:45;-9306.13;;;2.15
74043;BMP280;62384;53.600;10.040;2022-12-11T13:16:38;-9303.50;;;2.05
74043;BMP280;62384;53.600;10.040;2022-12-11T13:24:56;-9297.22;;;1.81
74043;BMP280;62384;53.600;10.040;2022-12-11T13:27:37;-9297.59;;;1.82
74043;BMP280;62384;53.600;10.040;2022-12-11T13:33:04;-9298.91;;;1.87
74043;BMP280;62384;53.600;10.040;2022-12-11T13:35:32;-9296.41;;;1.78
74043;BMP280;62384;53.600;10.040;2022-12-11T13:38:07;-9294.19;;;1.69
74043;BMP280;62384;53.600;10.040;2022-12-11T13:40:38;-9293.53;;;1.67
74043;BMP280;62384;53.600;10.040;2022-12-11T13:43:17;-9298.13;;;1.84
74043;BMP280;62384;53.600;10.040;2022-12-11T13:45:52;-9290.91;;;1.56
74043;BMP280;62384;53.600;10.040;2022-12-11T13:48:26;-9294.19;;;1.69
74043;BMP280;62384;53.600;10.040;2022-12-11T13:50:54;-9294.84;;;1.72
74043;BMP280;62384;53.600;10.040;2022-12-11T13:53:22;-9293.53;;;1.67
74043;BMP280;62384;53.600;10.040;2022-12-11T13:55:56;-9293.00;;;1.65
74043;BMP280;62384;53.600;10.040;2022-12-11T13:58:22;-9290.91;;;1.56
74043;BMP280;62384;53.600;10.040;2022-12-11T14:03:32;-9288.13;;;1.46
74043;BMP280;62384;53.600;10.040;2022-12-11T14:05:59;-9278.69;;;1.10
74043;BMP280;62384;53.600;10.040;2022-12-11T14:08:30;-9283.69;;;1.29
74043;BMP280;62384;53.600;10.040;2022-12-11T14:10:57;-9277.38;;;1.04
74043;BMP280;62384;53.600;10.040;2022-12-11T14:13:26;-9279.47;;;1.13
74043;BMP280;62384;53.600;10.040;2022-12-11T14:15:55;-9279.75;;;1.14
74043;BMP280;62384;53.600;10.040;2022-12-11T14:18:22;-9280.53;;;1.17
74043;BMP280;62384;53.600;10.040;2022-12-11T14:20:56;-9280.00;;;1.15
74043;BMP280;62384;53.600;10.040;2022-12-11T14:23:25;-9277.09;;;1.03
74043;BMP280;62384;53.600;10.040;2022-12-11T14:25:59;-9275.81;;;0.98
74043;BMP280;62384;53.600;10.040;2022-12-11T14:28:26;-9272.66;;;0.86
74043;BMP280;62384;53.600;10.040;2022-12-11T14:30:55;-9276.31;;;1.00
74043;BMP280;62384;53.600;10.040;2022-12-11T14:33:33;-9277.09;;;1.03
74043;BMP280;62384;53.600;10.040;2022-12-11T14:35:59;-9274.75;;;0.94
74043;BMP280;62384;53.600;10.040;2022-12-11T14:38:29;-9274.75;;;0.94
74043;BMP280;62384;53.600;10.040;2022-12-11T14:41:02;-9276.72;;;1.02
74043;BMP280;62384;53.600;10.040;2022-12-11T14:43:36;-9276.19;;;1.00
74043;BMP280;62384;53.600;10.040;2022-12-11T14:46:07;-9276.72;;;1.02
74043;BMP280;62384;53.600;10.040;2022-12-11T14:48:55;-9276.06;;;0.99
74043;BMP280;62384;53.600;10.040;2022-12-11T14:51:22;-9275.53;;;0.97
74043;BMP280;62384;53.600;10.040;2022-12-11T14:53:51;-9275.66;;;0.98
74043;BMP280;62384;53.600;10.040;2022-12-11T14:56:20;-9272.91;;;0.87
74043;BMP280;62384;53.600;10.040;2022-12-11T14:58:53;-9269.09;;;0.73
74043;BMP280;62384;53.600;10.040;2022-12-11T15:01:30;-9270.94;;;0.80
74043;BMP280;62384;53.600;10.040;2022-12-11T15:04:19;-9272.00;;;0.84
74043;BMP280;62384;53.600;10.040;2022-12-11T15:06:47;-9274.09;;;0.92
74043;BMP280;62384;53.600;10.040;2022-12-11T15:11:47;-9277.09;;;1.03
74043;BMP280;62384;53.600;10.040;2022-12-11T15:14:18;-9278.81;;;1.10
74043;BMP280;62384;53.600;10.040;2022-12-11T15:16:45;-9276.97;;;1.03
74043;BMP280;62384;53.600;10.040;2022-12-11T15:19:27;-9278.16;;;1.08
74043;BMP280;62384;53.600;10.040;2022-12-11T15:22:06;-9276.19;;;1.00
74043;BMP280;62384;53.600;10.040;2022-12-11T15:24:40;-9276.97;;;1.03
74043;BMP280;62384;53.600;10.040;2022-12-11T15:27:31;-9276.84;;;1.02